sensor_id;sensor_type;location;lat;lon;timestamp;P1;P2;P0
75946;PMS5003;64628;50.104;14.614;2023-11-18T00:01:30;11;6;
75946;PMS5003;64628;50.104;14.614;2023-11-18T00:03:53;13;9;
75946;PMS5003;64628;50.104;14.614;2023-11-18T00:06:19;34;32;
75946;PMS5003;64628;50.104;14.614;2023-11-18T00:08:44;15;13;
75946;PMS5003;64628;50.104;14.614;2023-11-18T00:11:09;19;17;
75946;PMS5003;64628;50.104;14.614;2023-11-18T00:13:35;22;17;
75946;PMS5003;64628;50.104;14.614;2023-11-18T00:16:01;10;9;
75946;PMS5003;64628;50.104;14.614;2023-11-18T00:18:26;10;5;
75946;PMS5003;64628;50.104;14.614;2023-11-18T00:20:52;15;14;
75946;PMS5003;64628;50.104;14.614;2023-11-18T00:23:17;9;9;
75946;PMS5003;64628;50.104;14.614;2023-11-18T00:25:43;10;10;
75946;PMS5003;64628;50.104;14.614;2023-11-18T00:28:08;6;6;
75946;PMS5003;64628;50.104;14.614;2023-11-18T00:30:33;11;10;
75946;PMS5003;64628;50.104;14.614;2023-11-18T00:32:59;9;9;
75946;PMS5003;64628;50.104;14.614;2023-11-18T00:35:24;9;9;
75946;PMS5003;64628;50.104;14.614;2023-11-18T00:37:50;10;6;
75946;PMS5003;64628;50.104;14.614;2023-11-18T00:40:15;10;10;
75946;PMS5003;64628;50.104;14.614;2023-11-18T00:42:41;10;9;
75946;PMS5003;64628;50.104;14.614;2023-11-18T00:45:07;26;22;
75946;PMS5003;64628;50.104;14.614;2023-11-18T00:47:31;9;9;
75946;PMS5003;64628;50.104;14.614;2023-11-18T00:49:57;11;10;
75946;PMS5003;64628;50.104;14.614;2023-11-18T00:52:23;10;7;
75946;PMS5003;64628;50.104;14.614;2023-11-18T00:54:48;9;7;
75946;PMS5003;64628;50.104;14.614;2023-11-18T00:57:14;7;7;
75946;PMS5003;64628;50.104;14.614;2023-11-18T00:59:41;13;10;
75946;PMS5003;64628;50.104;14.614;2023-11-18T01:02:05;14;13;
75946;PMS5003;64628;50.104;14.614;2023-11-18T01:04:30;7;7;
75946;PMS5003;64628;50.104;14.614;2023-11-18T01:06:56;7;7;
75946;PMS5003;64628;50.104;14.614;2023-11-18T01:09:21;7;7;
75946;PMS5003;64628;50.104;14.614;2023-11-18T01:11:47;10;10;
75946;PMS5003;64628;50.104;14.614;2023-11-18T01:14:12;7;7;
75946;PMS5003;64628;50.104;14.614;2023-11-18T01:16:38;11;10;
75946;PMS5003;64628;50.104;14.614;2023-11-18T01:19:04;10;10;
75946;PMS5003;64628;50.104;14.614;2023-11-18T01:21:29;14;10;
75946;PMS5003;64628;50.104;14.614;2023-11-18T01:23:55;13;10;
75946;PMS5003;64628;50.104;14.614;2023-11-18T01:26:20;9;9;
75946;PMS5003;64628;50.104;14.614;2023-11-18T01:28:46;11;9;
75946;PMS5003;64628;50.104;14.614;2023-11-18T01:31:11;10;10;
75946;PMS5003;64628;50.104;14.614;2023-11-18T01:33:36;15;11;
75946;PMS5003;64628;50.104;14.614;2023-11-18T01:36:02;24;18;
75946;PMS5003;64628;50.104;14.614;2023-11-18T01:38:28;14;11;
75946;PMS5003;64628;50.104;14.614;2023-11-18T01:40:53;13;11;
75946;PMS5003;64628;50.104;14.614;2023-11-18T01:43:18;14;13;
75946;PMS5003;64628;50.104;14.614;2023-11-18T01:45:44;10;9;
75946;PMS5003;64628;50.104;14.614;2023-11-18T01:48:09;13;11;
75946;PMS5003;64628;50.104;14.614;2023-11-18T01:50:34;14;10;
75946;PMS5003;64628;50.104;14.614;2023-11-18T01:53:00;11;11;
75946;PMS5003;64628;50.104;14.614;2023-11-18T01:55:26;19;15;
75946;PMS5003;64628;50.104;14.614;2023-11-18T01:57:51;10;10;
75946;PMS5003;64628;50.104;14.614;2023-11-18T02:00:17;9;9;
75946;PMS5003;64628;50.104;14.614;2023-11-18T02:02:42;9;9;
75946;PMS5003;64628;50.104;14.614;2023-11-18T02:05:08;13;10;
75946;PMS5003;64628;50.104;14.614;2023-11-18T02:07:33;11;9;
75946;PMS5003;64628;50.104;14.614;2023-11-18T02:09:59;9;9;
75946;PMS5003;64628;50.104;14.614;2023-11-18T02:12:26;11;10;
75946;PMS5003;64628;50.104;14.614;2023-11-18T02:14:50;13;10;
75946;PMS5003;64628;50.104;14.614;2023-11-18T02:17:17;11;11;
75946;PMS5003;64628;50.104;14.614;2023-11-18T02:19:41;14;11;
75946;PMS5003;64628;50.104;14.614;2023-11-18T02:22:07;14;13;
75946;PMS5003;64628;50.104;14.614;2023-11-18T02:24:32;15;13;
75946;PMS5003;64628;50.104;14.614;2023-11-18T02:26:58;18;14;
75946;PMS5003;64628;50.104;14.614;2023-11-18T02:29:23;15;15;
75946;PMS5003;64628;50.104;14.614;2023-11-18T02:34:16;17;14;
75946;PMS5003;64628;50.104;14.614;2023-11-18T02:36:41;14;13;
75946;PMS5003;64628;50.104;14.614;2023-11-18T02:39:06;17;13;
75946;PMS5003;64628;50.104;14.614;2023-11-18T02:41:31;22;18;
75946;PMS5003;64628;50.104;14.614;2023-11-18T02:43:56;13;11;
75946;PMS5003;64628;50.104;14.614;2023-11-18T02:46:22;22;19;
75946;PMS5003;64628;50.104;14.614;2023-11-18T02:48:48;27;19;
75946;PMS5003;64628;50.104;14.614;2023-11-18T02:51:13;21;14;
75946;PMS5003;64628;50.104;14.614;2023-11-18T02:53:38;22;19;
75946;PMS5003;64628;50.104;14.614;2023-11-18T02:56:04;13;11;
75946;PMS5003;64628;50.104;14.614;2023-11-18T02:58:29;15;14;
75946;PMS5003;64628;50.104;14.614;2023-11-18T03:00:55;13;13;
75946;PMS5003;64628;50.104;14.614;2023-11-18T03:03:20;19;15;
75946;PMS5003;64628;50.104;14.614;2023-11-18T03:05:46;26;19;
75946;PMS5003;64628;50.104;14.614;2023-11-18T03:08:12;19;18;
75946;PMS5003;64628;50.104;14.614;2023-11-18T03:10:37;15;14;
75946;PMS5003;64628;50.104;14.614;2023-11-18T03:13:03;13;11;
75946;PMS5003;64628;50.104;14.614;2023-11-18T03:15:28;11;10;
75946;PMS5003;64628;50.104;14.614;2023-11-18T03:17:53;18;11;
75946;PMS5003;64628;50.104;14.614;2023-11-18T03:20:19;15;13;
75946;PMS5003;64628;50.104;14.614;2023-11-18T03:22:44;13;13;
75946;PMS5003;64628;50.104;14.614;2023-11-18T03:25:10;22;21;
75946;PMS5003;64628;50.104;14.614;2023-11-18T03:27:35;17;13;
75946;PMS5003;64628;50.104;14.614;2023-11-18T03:30:00;21;13;
75946;PMS5003;64628;50.104;14.614;2023-11-18T03:32:26;18;14;
75946;PMS5003;64628;50.104;14.614;2023-11-18T03:34:52;18;17;
75946;PMS5003;64628;50.104;14.614;2023-11-18T03:37:17;15;14;
75946;PMS5003;64628;50.104;14.614;2023-11-18T03:39:44;15;11;
75946;PMS5003;64628;50.104;14.614;2023-11-18T03:42:08;18;14;
75946;PMS5003;64628;50.104;14.614;2023-11-18T03:44:34;21;19;
75946;PMS5003;64628;50.104;14.614;2023-11-18T03:47:00;17;14;
75946;PMS5003;64628;50.104;14.614;2023-11-18T03:49:26;19;15;
75946;PMS5003;64628;50.104;14.614;2023-11-18T03:51:51;20;13;
75946;PMS5003;64628;50.104;14.614;2023-11-18T03:54:17;19;17;
75946;PMS5003;64628;50.104;14.614;2023-11-18T03:56:42;11;10;
75946;PMS5003;64628;50.104;14.614;2023-11-18T03:59:08;18;15;
75946;PMS5003;64628;50.104;14.614;2023-11-18T04:01:33;17;15;
75946;PMS5003;64628;50.104;14.614;2023-11-18T04:03:59;19;15;
75946;PMS5003;64628;50.104;14.614;2023-11-18T04:06:24;13;10;
75946;PMS5003;64628;50.104;14.614;2023-11-18T04:08:50;15;14;
75946;PMS5003;64628;50.104;14.614;2023-11-18T04:11:16;15;14;
75946;PMS5003;64628;50.104;14.614;2023-11-18T04:13:41;18;14;
75946;PMS5003;64628;50.104;14.614;2023-11-18T04:16:07;14;11;
75946;PMS5003;64628;50.104;14.614;2023-11-18T04:18:32;15;13;
75946;PMS5003;64628;50.104;14.614;2023-11-18T04:20:57;20;13;
75946;PMS5003;64628;50.104;14.614;2023-11-18T04:23:23;15;14;
75946;PMS5003;64628;50.104;14.614;2023-11-18T04:25:48;15;14;
75946;PMS5003;64628;50.104;14.614;2023-11-18T04:28:14;15;13;
75946;PMS5003;64628;50.104;14.614;2023-11-18T04:30:39;17;15;
75946;PMS5003;64628;50.104;14.614;2023-11-18T04:33:05;17;14;
75946;PMS5003;64628;50.104;14.614;2023-11-18T04:35:30;21;17;
75946;PMS5003;64628;50.104;14.614;2023-11-18T04:37:55;19;13;
75946;PMS5003;64628;50.104;14.614;2023-11-18T04:40:21;24;22;
75946;PMS5003;64628;50.104;14.614;2023-11-18T04:42:47;19;15;
75946;PMS5003;64628;50.104;14.614;2023-11-18T04:45:12;21;21;
75946;PMS5003;64628;50.104;14.614;2023-11-18T04:47:38;25;23;
75946;PMS5003;64628;50.104;14.614;2023-11-18T04:50:04;18;17;
75946;PMS5003;64628;50.104;14.614;2023-11-18T04:52:28;19;17;
75946;PMS5003;64628;50.104;14.614;2023-11-18T04:54:54;27;27;
75946;PMS5003;64628;50.104;14.614;2023-11-18T04:57:19;38;33;
75946;PMS5003;64628;50.104;14.614;2023-11-18T04:59:44;19;18;
75946;PMS5003;64628;50.104;14.614;2023-11-18T05:02:10;47;34;
75946;PMS5003;64628;50.104;14.614;2023-11-18T05:04:35;32;26;
75946;PMS5003;64628;50.104;14.614;2023-11-18T05:07:01;21;15;
75946;PMS5003;64628;50.104;14.614;2023-11-18T05:09:26;17;14;
75946;PMS5003;64628;50.104;14.614;2023-11-18T05:11:52;19;14;
75946;PMS5003;64628;50.104;14.614;2023-11-18T05:14:17;30;22;
75946;PMS5003;64628;50.104;14.614;2023-11-18T05:16:42;21;19;
75946;PMS5003;64628;50.104;14.614;2023-11-18T05:19:07;21;15;
75946;PMS5003;64628;50.104;14.614;2023-11-18T05:21:33;15;13;
75946;PMS5003;64628;50.104;14.614;2023-11-18T05:23:59;22;17;
75946;PMS5003;64628;50.104;14.614;2023-11-18T05:26:24;14;14;
75946;PMS5003;64628;50.104;14.614;2023-11-18T05:28:49;11;11;
75946;PMS5003;64628;50.104;14.614;2023-11-18T05:31:15;11;11;
75946;PMS5003;64628;50.104;14.614;2023-11-18T05:33:40;14;13;
75946;PMS5003;64628;50.104;14.614;2023-11-18T05:36:06;9;9;
75946;PMS5003;64628;50.104;14.614;2023-11-18T05:38:31;10;10;
75946;PMS5003;64628;50.104;14.614;2023-11-18T05:40:57;9;9;
75946;PMS5003;64628;50.104;14.614;2023-11-18T05:43:23;6;6;
75946;PMS5003;64628;50.104;14.614;2023-11-18T05:45:48;14;9;
75946;PMS5003;64628;50.104;14.614;2023-11-18T05:48:13;10;6;
75946;PMS5003;64628;50.104;14.614;2023-11-18T05:50:39;9;7;
75946;PMS5003;64628;50.104;14.614;2023-11-18T05:53:04;9;9;
75946;PMS5003;64628;50.104;14.614;2023-11-18T05:55:30;9;7;
75946;PMS5003;64628;50.104;14.614;2023-11-18T05:57:55;10;9;
75946;PMS5003;64628;50.104;14.614;2023-11-18T06:00:21;6;6;
75946;PMS5003;64628;50.104;14.614;2023-11-18T06:02:46;10;7;
75946;PMS5003;64628;50.104;14.614;2023-11-18T06:05:12;7;7;
75946;PMS5003;64628;50.104;14.614;2023-11-18T06:07:37;10;9;
75946;PMS5003;64628;50.104;14.614;2023-11-18T06:10:03;7;6;
75946;PMS5003;64628;50.104;14.614;2023-11-18T06:12:28;6;5;
75946;PMS5003;64628;50.104;14.614;2023-11-18T06:14:54;10;9;
75946;PMS5003;64628;50.104;14.614;2023-11-18T06:17:19;11;9;
75946;PMS5003;64628;50.104;14.614;2023-11-18T06:19:45;9;9;
75946;PMS5003;64628;50.104;14.614;2023-11-18T06:22:10;10;10;
75946;PMS5003;64628;50.104;14.614;2023-11-18T06:24:36;10;10;
75946;PMS5003;64628;50.104;14.614;2023-11-18T06:27:02;13;11;
75946;PMS5003;64628;50.104;14.614;2023-11-18T06:29:27;9;6;
75946;PMS5003;64628;50.104;14.614;2023-11-18T06:31:53;7;7;
75946;PMS5003;64628;50.104;14.614;2023-11-18T06:34:18;14;10;
75946;PMS5003;64628;50.104;14.614;2023-11-18T06:36:44;9;9;
75946;PMS5003;64628;50.104;14.614;2023-11-18T06:39:09;9;7;
75946;PMS5003;64628;50.104;14.614;2023-11-18T06:41:35;9;9;
75946;PMS5003;64628;50.104;14.614;2023-11-18T06:44:01;6;5;
75946;PMS5003;64628;50.104;14.614;2023-11-18T06:46:27;5;3;
75946;PMS5003;64628;50.104;14.614;2023-11-18T06:48:52;7;5;
75946;PMS5003;64628;50.104;14.614;2023-11-18T06:51:17;5;5;
75946;PMS5003;64628;50.104;14.614;2023-11-18T06:53:43;6;3;
75946;PMS5003;64628;50.104;14.614;2023-11-18T06:56:08;7;6;
75946;PMS5003;64628;50.104;14.614;2023-11-18T06:58:34;7;6;
75946;PMS5003;64628;50.104;14.614;2023-11-18T07:00:59;3;3;
75946;PMS5003;64628;50.104;14.614;2023-11-18T07:03:25;5;5;
75946;PMS5003;64628;50.104;14.614;2023-11-18T07:05:50;7;6;
75946;PMS5003;64628;50.104;14.614;2023-11-18T07:08:16;5;5;
75946;PMS5003;64628;50.104;14.614;2023-11-18T07:10:42;6;5;
75946;PMS5003;64628;50.104;14.614;2023-11-18T07:13:07;7;7;
75946;PMS5003;64628;50.104;14.614;2023-11-18T07:15:33;10;7;
75946;PMS5003;64628;50.104;14.614;2023-11-18T07:17:58;10;5;
75946;PMS5003;64628;50.104;14.614;2023-11-18T07:20:24;7;6;
75946;PMS5003;64628;50.104;14.614;2023-11-18T07:22:49;9;7;
75946;PMS5003;64628;50.104;14.614;2023-11-18T07:25:15;6;3;
75946;PMS5003;64628;50.104;14.614;2023-11-18T07:27:40;3;3;
75946;PMS5003;64628;50.104;14.614;2023-11-18T07:30:06;3;1;
75946;PMS5003;64628;50.104;14.614;2023-11-18T07:32:31;5;5;
75946;PMS5003;64628;50.104;14.614;2023-11-18T07:34:57;3;3;
75946;PMS5003;64628;50.104;14.614;2023-11-18T07:37:22;6;3;
75946;PMS5003;64628;50.104;14.614;2023-11-18T07:39:48;5;3;
75946;PMS5003;64628;50.104;14.614;2023-11-18T07:42:14;5;5;
75946;PMS5003;64628;50.104;14.614;2023-11-18T07:44:39;5;5;
75946;PMS5003;64628;50.104;14.614;2023-11-18T07:47:05;7;7;
75946;PMS5003;64628;50.104;14.614;2023-11-18T07:49:30;6;5;
75946;PMS5003;64628;50.104;14.614;2023-11-18T07:51:55;9;5;
75946;PMS5003;64628;50.104;14.614;2023-11-18T07:54:21;5;5;
75946;PMS5003;64628;50.104;14.614;2023-11-18T07:56:47;7;7;
75946;PMS5003;64628;50.104;14.614;2023-11-18T07:59:12;6;6;
75946;PMS5003;64628;50.104;14.614;2023-11-18T08:01:40;3;2;
75946;PMS5003;64628;50.104;14.614;2023-11-18T08:04:04;3;3;
75946;PMS5003;64628;50.104;14.614;2023-11-18T08:06:28;5;3;
75946;PMS5003;64628;50.104;14.614;2023-11-18T08:08:54;2;2;
75946;PMS5003;64628;50.104;14.614;2023-11-18T08:11:19;2;2;
75946;PMS5003;64628;50.104;14.614;2023-11-18T08:13:45;6;3;
75946;PMS5003;64628;50.104;14.614;2023-11-18T08:16:10;6;5;
75946;PMS5003;64628;50.104;14.614;2023-11-18T08:18:36;5;3;
75946;PMS5003;64628;50.104;14.614;2023-11-18T08:21:01;5;5;
75946;PMS5003;64628;50.104;14.614;2023-11-18T08:23:27;6;6;
75946;PMS5003;64628;50.104;14.614;2023-11-18T08:25:53;10;9;
75946;PMS5003;64628;50.104;14.614;2023-11-18T08:28:18;7;6;
75946;PMS5003;64628;50.104;14.614;2023-11-18T08:30:43;5;5;
75946;PMS5003;64628;50.104;14.614;2023-11-18T08:33:09;6;5;
75946;PMS5003;64628;50.104;14.614;2023-11-18T08:35:35;8;3;
75946;PMS5003;64628;50.104;14.614;2023-11-18T08:38:00;5;5;
75946;PMS5003;64628;50.104;14.614;2023-11-18T08:40:26;7;6;
75946;PMS5003;64628;50.104;14.614;2023-11-18T08:42:51;10;10;
75946;PMS5003;64628;50.104;14.614;2023-11-18T08:45:16;5;5;
75946;PMS5003;64628;50.104;14.614;2023-11-18T08:47:43;6;6;
75946;PMS5003;64628;50.104;14.614;2023-11-18T08:50:07;7;3;
75946;PMS5003;64628;50.104;14.614;2023-11-18T08:52:33;6;6;
75946;PMS5003;64628;50.104;14.614;2023-11-18T08:54:58;7;6;
75946;PMS5003;64628;50.104;14.614;2023-11-18T08:57:25;6;3;
75946;PMS5003;64628;50.104;14.614;2023-11-18T08:59:49;6;5;
75946;PMS5003;64628;50.104;14.614;2023-11-18T09:02:17;5;5;
75946;PMS5003;64628;50.104;14.614;2023-11-18T09:04:41;11;6;
75946;PMS5003;64628;50.104;14.614;2023-11-18T09:07:06;10;8;
75946;PMS5003;64628;50.104;14.614;2023-11-18T09:09:31;8;8;
75946;PMS5003;64628;50.104;14.614;2023-11-18T09:11:57;8;8;
75946;PMS5003;64628;50.104;14.614;2023-11-18T09:14:22;7;5;
75946;PMS5003;64628;50.104;14.614;2023-11-18T09:16:47;7;7;
75946;PMS5003;64628;50.104;14.614;2023-11-18T09:19:13;6;3;
75946;PMS5003;64628;50.104;14.614;2023-11-18T09:21:38;5;5;
75946;PMS5003;64628;50.104;14.614;2023-11-18T09:24:04;5;5;
75946;PMS5003;64628;50.104;14.614;2023-11-18T09:26:29;5;5;
75946;PMS5003;64628;50.104;14.614;2023-11-18T09:28:54;10;7;
75946;PMS5003;64628;50.104;14.614;2023-11-18T09:31:20;10;8;
75946;PMS5003;64628;50.104;14.614;2023-11-18T09:33:46;10;6;
75946;PMS5003;64628;50.104;14.614;2023-11-18T09:36:11;17;13;
75946;PMS5003;64628;50.104;14.614;2023-11-18T09:38:36;11;7;
75946;PMS5003;64628;50.104;14.614;2023-11-18T09:41:02;12;8;
75946;PMS5003;64628;50.104;14.614;2023-11-18T09:43:27;10;8;
75946;PMS5003;64628;50.104;14.614;2023-11-18T09:45:54;5;5;
75946;PMS5003;64628;50.104;14.614;2023-11-18T09:48:18;6;5;
75946;PMS5003;64628;50.104;14.614;2023-11-18T09:50:43;5;5;
75946;PMS5003;64628;50.104;14.614;2023-11-18T09:53:09;8;3;
75946;PMS5003;64628;50.104;14.614;2023-11-18T09:55:35;5;5;
75946;PMS5003;64628;50.104;14.614;2023-11-18T09:58:02;17;12;
75946;PMS5003;64628;50.104;14.614;2023-11-18T10:00:25;7;6;
75946;PMS5003;64628;50.104;14.614;2023-11-18T10:02:51;7;6;
75946;PMS5003;64628;50.104;14.614;2023-11-18T10:05:16;6;6;
75946;PMS5003;64628;50.104;14.614;2023-11-18T10:07:42;5;5;
75946;PMS5003;64628;50.104;14.614;2023-11-18T10:10:08;7;6;
75946;PMS5003;64628;50.104;14.614;2023-11-18T10:12:32;3;3;
75946;PMS5003;64628;50.104;14.614;2023-11-18T10:14:58;13;12;
75946;PMS5003;64628;50.104;14.614;2023-11-18T10:17:23;7;7;
75946;PMS5003;64628;50.104;14.614;2023-11-18T10:19:50;8;8;
75946;PMS5003;64628;50.104;14.614;2023-11-18T10:22:19;11;10;
75946;PMS5003;64628;50.104;14.614;2023-11-18T10:27:05;10;10;
75946;PMS5003;64628;50.104;14.614;2023-11-18T10:29:30;12;8;
75946;PMS5003;64628;50.104;14.614;2023-11-18T10:32:03;10;7;
75946;PMS5003;64628;50.104;14.614;2023-11-18T10:34:21;10;8;
75946;PMS5003;64628;50.104;14.614;2023-11-18T10:39:13;16;12;
75946;PMS5003;64628;50.104;14.614;2023-11-18T10:41:39;12;12;
75946;PMS5003;64628;50.104;14.614;2023-11-18T10:44:06;13;11;
75946;PMS5003;64628;50.104;14.614;2023-11-18T10:46:28;6;6;
75946;PMS5003;64628;50.104;14.614;2023-11-18T10:48:53;10;10;
75946;PMS5003;64628;50.104;14.614;2023-11-18T10:51:20;25;17;
75946;PMS5003;64628;50.104;14.614;2023-11-18T10:53:46;18;15;
75946;PMS5003;64628;50.104;14.614;2023-11-18T10:56:18;12;11;
75946;PMS5003;64628;50.104;14.614;2023-11-18T10:58:35;10;8;
75946;PMS5003;64628;50.104;14.614;2023-11-18T11:01:01;12;12;
75946;PMS5003;64628;50.104;14.614;2023-11-18T11:03:26;13;11;
75946;PMS5003;64628;50.104;14.614;2023-11-18T11:05:52;16;8;
75946;PMS5003;64628;50.104;14.614;2023-11-18T11:08:17;22;22;
75946;PMS5003;64628;50.104;14.614;2023-11-18T11:10:42;22;18;
75946;PMS5003;64628;50.104;14.614;2023-11-18T11:13:08;16;15;
75946;PMS5003;64628;50.104;14.614;2023-11-18T11:15:33;11;11;
75946;PMS5003;64628;50.104;14.614;2023-11-18T11:18:01;16;11;
75946;PMS5003;64628;50.104;14.614;2023-11-18T11:20:24;12;11;
75946;PMS5003;64628;50.104;14.614;2023-11-18T11:25:15;11;8;
75946;PMS5003;64628;50.104;14.614;2023-11-18T11:27:41;10;7;
75946;PMS5003;64628;50.104;14.614;2023-11-18T11:30:08;12;12;
75946;PMS5003;64628;50.104;14.614;2023-11-18T11:32:32;11;10;
75946;PMS5003;64628;50.104;14.614;2023-11-18T11:34:57;8;8;
75946;PMS5003;64628;50.104;14.614;2023-11-18T11:37:22;11;11;
75946;PMS5003;64628;50.104;14.614;2023-11-18T11:39:47;16;13;
75946;PMS5003;64628;50.104;14.614;2023-11-18T11:42:12;11;11;
75946;PMS5003;64628;50.104;14.614;2023-11-18T11:44:38;11;8;
75946;PMS5003;64628;50.104;14.614;2023-11-18T11:47:03;6;6;
75946;PMS5003;64628;50.104;14.614;2023-11-18T11:49:31;11;8;
75946;PMS5003;64628;50.104;14.614;2023-11-18T11:51:55;10;7;
75946;PMS5003;64628;50.104;14.614;2023-11-18T11:54:21;8;7;
75946;PMS5003;64628;50.104;14.614;2023-11-18T11:56:45;12;10;
75946;PMS5003;64628;50.104;14.614;2023-11-18T11:59:10;16;13;
75946;PMS5003;64628;50.104;14.614;2023-11-18T12:01:36;13;13;
75946;PMS5003;64628;50.104;14.614;2023-11-18T12:04:02;21;12;
75946;PMS5003;64628;50.104;14.614;2023-11-18T12:06:26;15;13;
75946;PMS5003;64628;50.104;14.614;2023-11-18T12:08:52;16;15;
75946;PMS5003;64628;50.104;14.614;2023-11-18T12:11:18;17;15;
75946;PMS5003;64628;50.104;14.614;2023-11-18T12:16:09;15;15;
75946;PMS5003;64628;50.104;14.614;2023-11-18T12:18:34;13;13;
75946;PMS5003;64628;50.104;14.614;2023-11-18T12:20:59;20;16;
75946;PMS5003;64628;50.104;14.614;2023-11-18T12:23:24;25;21;
75946;PMS5003;64628;50.104;14.614;2023-11-18T12:25:50;21;17;
75946;PMS5003;64628;50.104;14.614;2023-11-18T12:28:15;11;11;
75946;PMS5003;64628;50.104;14.614;2023-11-18T12:30:41;12;12;
75946;PMS5003;64628;50.104;14.614;2023-11-18T12:33:05;15;12;
75946;PMS5003;64628;50.104;14.614;2023-11-18T12:35:31;20;16;
75946;PMS5003;64628;50.104;14.614;2023-11-18T12:38:06;12;12;
75946;PMS5003;64628;50.104;14.614;2023-11-18T12:45:28;15;13;
75946;PMS5003;64628;50.104;14.614;2023-11-18T12:47:38;17;16;
75946;PMS5003;64628;50.104;14.614;2023-11-18T12:50:06;26;21;
75946;PMS5003;64628;50.104;14.614;2023-11-18T12:52:28;20;12;
75946;PMS5003;64628;50.104;14.614;2023-11-18T12:54:54;22;20;
75946;PMS5003;64628;50.104;14.614;2023-11-18T12:57:20;16;13;
75946;PMS5003;64628;50.104;14.614;2023-11-18T12:59:45;15;13;
75946;PMS5003;64628;50.104;14.614;2023-11-18T13:02:10;16;16;
75946;PMS5003;64628;50.104;14.614;2023-11-18T13:04:36;50;41;
75946;PMS5003;64628;50.104;14.614;2023-11-18T13:07:01;26;20;
75946;PMS5003;64628;50.104;14.614;2023-11-18T13:09:27;24;18;
75946;PMS5003;64628;50.104;14.614;2023-11-18T13:11:53;20;17;
75946;PMS5003;64628;50.104;14.614;2023-11-18T13:14:18;17;15;
75946;PMS5003;64628;50.104;14.614;2023-11-18T13:16:43;17;15;
75946;PMS5003;64628;50.104;14.614;2023-11-18T13:19:09;30;22;
75946;PMS5003;64628;50.104;14.614;2023-11-18T13:21:34;32;26;
75946;PMS5003;64628;50.104;14.614;2023-11-18T13:23:59;26;22;
75946;PMS5003;64628;50.104;14.614;2023-11-18T13:26:24;25;17;
75946;PMS5003;64628;50.104;14.614;2023-11-18T13:28:50;27;26;
75946;PMS5003;64628;50.104;14.614;2023-11-18T13:31:16;20;16;
75946;PMS5003;64628;50.104;14.614;2023-11-18T13:33:41;21;18;
75946;PMS5003;64628;50.104;14.614;2023-11-18T13:36:07;20;17;
75946;PMS5003;64628;50.104;14.614;2023-11-18T13:38:32;27;22;
75946;PMS5003;64628;50.104;14.614;2023-11-18T13:40:57;21;18;
75946;PMS5003;64628;50.104;14.614;2023-11-18T13:43:22;17;17;
75946;PMS5003;64628;50.104;14.614;2023-11-18T13:45:50;20;16;
75946;PMS5003;64628;50.104;14.614;2023-11-18T13:48:14;18;17;
75946;PMS5003;64628;50.104;14.614;2023-11-18T13:50:40;16;15;
75946;PMS5003;64628;50.104;14.614;2023-11-18T13:53:04;20;17;
75946;PMS5003;64628;50.104;14.614;2023-11-18T13:55:30;21;21;
75946;PMS5003;64628;50.104;14.614;2023-11-18T13:57:56;30;22;
75946;PMS5003;64628;50.104;14.614;2023-11-18T14:00:22;19;17;
75946;PMS5003;64628;50.104;14.614;2023-11-18T14:02:46;40;34;
75946;PMS5003;64628;50.104;14.614;2023-11-18T14:05:15;22;20;
75946;PMS5003;64628;50.104;14.614;2023-11-18T14:07:37;30;22;
75946;PMS5003;64628;50.104;14.614;2023-11-18T14:10:02;24;19;
75946;PMS5003;64628;50.104;14.614;2023-11-18T14:12:28;22;20;
75946;PMS5003;64628;50.104;14.614;2023-11-18T14:14:53;38;30;
75946;PMS5003;64628;50.104;14.614;2023-11-18T14:17:18;36;33;
75946;PMS5003;64628;50.104;14.614;2023-11-18T14:19:44;27;24;
75946;PMS5003;64628;50.104;14.614;2023-11-18T14:22:09;35;30;
75946;PMS5003;64628;50.104;14.614;2023-11-18T14:24:35;29;24;
75946;PMS5003;64628;50.104;14.614;2023-11-18T14:27:00;39;33;
75946;PMS5003;64628;50.104;14.614;2023-11-18T14:29:25;25;22;
75946;PMS5003;64628;50.104;14.614;2023-11-18T14:31:51;39;34;
75946;PMS5003;64628;50.104;14.614;2023-11-18T14:34:16;29;24;
75946;PMS5003;64628;50.104;14.614;2023-11-18T14:36:41;38;34;
75946;PMS5003;64628;50.104;14.614;2023-11-18T14:39:08;33;28;
75946;PMS5003;64628;50.104;14.614;2023-11-18T14:41:32;28;28;
75946;PMS5003;64628;50.104;14.614;2023-11-18T14:43:58;36;30;
75946;PMS5003;64628;50.104;14.614;2023-11-18T14:46:23;38;28;
75946;PMS5003;64628;50.104;14.614;2023-11-18T14:48:49;48;40;
75946;PMS5003;64628;50.104;14.614;2023-11-18T14:51:14;43;35;
75946;PMS5003;64628;50.104;14.614;2023-11-18T14:53:39;56;46;
75946;PMS5003;64628;50.104;14.614;2023-11-18T14:56:05;45;41;
75946;PMS5003;64628;50.104;14.614;2023-11-18T14:58:30;56;47;
75946;PMS5003;64628;50.104;14.614;2023-11-18T15:00:55;49;43;
75946;PMS5003;64628;50.104;14.614;2023-11-18T15:03:20;47;42;
75946;PMS5003;64628;50.104;14.614;2023-11-18T15:05:46;57;45;
75946;PMS5003;64628;50.104;14.614;2023-11-18T15:08:11;51;40;
75946;PMS5003;64628;50.104;14.614;2023-11-18T15:10:37;51;40;
75946;PMS5003;64628;50.104;14.614;2023-11-18T15:13:02;51;42;
75946;PMS5003;64628;50.104;14.614;2023-11-18T15:15:28;48;44;
75946;PMS5003;64628;50.104;14.614;2023-11-18T15:17:53;44;44;
75946;PMS5003;64628;50.104;14.614;2023-11-18T15:20:18;49;40;
75946;PMS5003;64628;50.104;14.614;2023-11-18T15:22:44;53;45;
75946;PMS5003;64628;50.104;14.614;2023-11-18T15:25:10;64;41;
75946;PMS5003;64628;50.104;14.614;2023-11-18T15:27:35;53;36;
75946;PMS5003;64628;50.104;14.614;2023-11-18T15:30:00;48;39;
75946;PMS5003;64628;50.104;14.614;2023-11-18T15:32:26;45;37;
75946;PMS5003;64628;50.104;14.614;2023-11-18T15:34:52;35;31;
75946;PMS5003;64628;50.104;14.614;2023-11-18T15:37:17;52;40;
75946;PMS5003;64628;50.104;14.614;2023-11-18T15:39:43;47;40;
75946;PMS5003;64628;50.104;14.614;2023-11-18T15:42:08;42;38;
75946;PMS5003;64628;50.104;14.614;2023-11-18T15:44:34;34;30;
75946;PMS5003;64628;50.104;14.614;2023-11-18T15:46:59;44;37;
75946;PMS5003;64628;50.104;14.614;2023-11-18T15:49:25;45;38;
75946;PMS5003;64628;50.104;14.614;2023-11-18T15:51:50;45;41;
75946;PMS5003;64628;50.104;14.614;2023-11-18T15:54:15;34;29;
75946;PMS5003;64628;50.104;14.614;2023-11-18T15:56:41;42;40;
75946;PMS5003;64628;50.104;14.614;2023-11-18T15:59:07;52;38;
75946;PMS5003;64628;50.104;14.614;2023-11-18T16:01:32;42;32;
75946;PMS5003;64628;50.104;14.614;2023-11-18T16:03:58;42;36;
75946;PMS5003;64628;50.104;14.614;2023-11-18T16:06:24;38;29;
75946;PMS5003;64628;50.104;14.614;2023-11-18T16:08:50;41;30;
75946;PMS5003;64628;50.104;14.614;2023-11-18T16:11:15;43;36;
75946;PMS5003;64628;50.104;14.614;2023-11-18T16:13:41;44;33;
75946;PMS5003;64628;50.104;14.614;2023-11-18T16:16:07;44;36;